sensor_id;sensor_type;location;lat;lon;timestamp;pressure;altitude;pressure_sealevel;temperature;humidity
58295;BME280;45705;55.592;37.460;2022-10-16T00:02:05;100343.28;;;3.03;100.00
58295;BME280;45705;55.592;37.460;2022-10-16T00:04:31;100364.31;;;3.06;100.00
58295;BME280;45705;55.592;37.460;2022-10-16T00:06:57;100354.72;;;2.99;100.00
58295;BME280;45705;55.592;37.460;2022-10-16T00:09:23;100360.22;;;3.04;100.00
58295;BME280;45705;55.592;37.460;2022-10-16T00:11:48;100363.00;;;2.97;100.00
58295;BME280;45705;55.592;37.460;2022-10-16T00:14:15;100370.94;;;2.92;100.00
58295;BME280;45705;55.592;37.460;2022-10-16T00:16:41;100369.31;;;2.91;100.00
58295;BME280;45705;55.592;37.460;2022-10-16T00:19:09;100369.41;;;2.96;100.00
58295;BME280;45705;55.592;37.460;2022-10-16T00:21:34;100364.97;;;2.90;100.00
58295;BME280;45705;55.592;37.460;2022-10-16T00:24:19;100367.97;;;2.82;100.00
58295;BME280;45705;55.592;37.460;2022-10-16T00:26:44;100370.34;;;2.90;100.00
58295;BME280;45705;55.592;37.460;2022-10-16T00:29:11;100376.31;;;2.92;100.00
58295;BME280;45705;55.592;37.460;2022-10-16T00:31:37;100367.50;;;2.85;100.00
58295;BME280;45705;55.592;37.460;2022-10-16T00:34:03;100370.28;;;2.78;100.00
58295;BME280;45705;55.592;37.460;2022-10-16T00:36:28;100376.34;;;2.73;100.00
58295;BME280;45705;55.592;37.460;2022-10-16T00:38:55;100374.31;;;2.69;100.00
58295;BME280;45705;55.592;37.460;2022-10-16T00:41:24;100371.19;;;2.72;100.00
58295;BME280;45705;55.592;37.460;2022-10-16T00:43:57;100371.78;;;2.74;100.00
58295;BME280;45705;55.592;37.460;2022-10-16T00:46:27;100373.94;;;2.65;100.00
58295;BME280;45705;55.592;37.460;2022-10-16T00:49:04;100382.59;;;2.67;100.00
58295;BME280;45705;55.592;37.460;2022-10-16T00:51:48;100377.09;;;2.62;100.00
58295;BME280;45705;55.592;37.460;2022-10-16T00:54:19;100370.63;;;2.70;100.00
58295;BME280;45705;55.592;37.460;2022-10-16T00:56:46;100377.81;;;2.69;100.00
58295;BME280;45705;55.592;37.460;2022-10-16T00:59:19;100371.28;;;2.65;100.00
58295;BME280;45705;55.592;37.460;2022-10-16T01:02:06;100377.09;;;2.62;100.00
58295;BME280;45705;55.592;37.460;2022-10-16T01:04:36;100376.50;;;2.60;100.00
58295;BME280;45705;55.592;37.460;2022-10-16T01:12:59;100386.06;;;2.56;100.00
58295;BME280;45705;55.592;37.460;2022-10-16T01:15:37;100388.16;;;2.54;100.00
58295;BME280;45705;55.592;37.460;2022-10-16T01:18:05;100390.53;;;2.62;100.00
58295;BME280;45705;55.592;37.460;2022-10-16T01:21:03;100387.25;;;2.60;100.00
58295;BME280;45705;55.592;37.460;2022-10-16T01:29:05;100398.91;;;2.54;100.00
58295;BME280;45705;55.592;37.460;2022-10-16T01:31:38;100404.25;;;2.54;100.00
58295;BME280;45705;55.592;37.460;2022-10-16T01:34:31;100401.94;;;2.39;100.00
58295;BME280;45705;55.592;37.460;2022-10-16T01:37:06;100401.72;;;2.41;100.00
58295;BME280;45705;55.592;37.460;2022-10-16T01:39:38;100411.50;;;2.35;100.00
58295;BME280;45705;55.592;37.460;2022-10-16T01:42:09;100409.78;;;2.41;100.00
58295;BME280;45705;55.592;37.460;2022-10-16T01:44:37;100406.03;;;2.42;100.00
58295;BME280;45705;55.592;37.460;2022-10-16T01:47:06;100409.03;;;2.33;100.00
58295;BME280;45705;55.592;37.460;2022-10-16T01:49:35;100391.25;;;2.32;100.00
58295;BME280;45705;55.592;37.460;2022-10-16T01:52:06;100408.59;;;2.36;100.00
58295;BME280;45705;55.592;37.460;2022-10-16T01:54:35;100394.63;;;2.28;100.00
58295;BME280;45705;55.592;37.460;2022-10-16T01:57:04;100408.44;;;2.31;100.00
58295;BME280;45705;55.592;37.460;2022-10-16T01:59:40;100407.44;;;2.26;100.00
58295;BME280;45705;55.592;37.460;2022-10-16T02:02:09;100409.31;;;2.25;100.00
58295;BME280;45705;55.592;37.460;2022-10-16T02:04:46;100404.38;;;2.22;100.00
58295;BME280;45705;55.592;37.460;2022-10-16T02:07:13;100395.53;;;2.22;100.00
58295;BME280;45705;55.592;37.460;2022-10-16T02:09:40;100409.47;;;2.30;100.00
58295;BME280;45705;55.592;37.460;2022-10-16T02:12:28;100410.81;;;2.21;100.00
58295;BME280;45705;55.592;37.460;2022-10-16T02:14:56;100418.25;;;2.19;100.00
58295;BME280;45705;55.592;37.460;2022-10-16T02:17:23;100412.00;;;2.25;100.00
58295;BME280;45705;55.592;37.460;2022-10-16T02:19:50;100408.72;;;2.23;100.00
58295;BME280;45705;55.592;37.460;2022-10-16T02:22:24;100408.38;;;2.13;100.00
58295;BME280;45705;55.592;37.460;2022-10-16T02:27:30;100415.09;;;2.04;100.00
58295;BME280;45705;55.592;37.460;2022-10-16T02:30:04;100414.94;;;2.17;100.00
58295;BME280;45705;55.592;37.460;2022-10-16T02:32:35;100400.22;;;2.08;100.00
58295;BME280;45705;55.592;37.460;2022-10-16T02:35:02;100419.59;;;2.10;100.00
58295;BME280;45705;55.592;37.460;2022-10-16T02:37:28;100421.97;;;2.18;100.00
58295;BME280;45705;55.592;37.460;2022-10-16T02:39:56;100399.28;;;1.95;100.00
58295;BME280;45705;55.592;37.460;2022-10-16T02:42:34;100421.22;;;2.11;100.00
58295;BME280;45705;55.592;37.460;2022-10-16T02:45:00;100432.22;;;2.03;100.00
58295;BME280;45705;55.592;37.460;2022-10-16T02:47:26;100431.19;;;2.04;100.00
58295;BME280;45705;55.592;37.460;2022-10-16T02:49:52;100401.63;;;1.85;100.00
58295;BME280;45705;55.592;37.460;2022-10-16T02:52:18;100430.44;;;1.96;100.00
58295;BME280;45705;55.592;37.460;2022-10-16T02:54:44;100427.53;;;1.98;100.00
58295;BME280;45705;55.592;37.460;2022-10-16T02:57:10;100432.50;;;1.94;100.00
58295;BME280;45705;55.592;37.460;2022-10-16T02:59:35;100424.69;;;1.93;100.00
58295;BME280;45705;55.592;37.460;2022-10-16T03:02:01;100422.66;;;1.88;100.00
58295;BME280;45705;55.592;37.460;2022-10-16T03:04:27;100430.84;;;1.93;100.00
58295;BME280;45705;55.592;37.460;2022-10-16T03:06:53;100434.59;;;1.92;100.00
58295;BME280;45705;55.592;37.460;2022-10-16T03:09:18;100430.22;;;1.98;100.00
58295;BME280;45705;55.592;37.460;2022-10-16T03:11:44;100427.47;;;2.05;100.00
58295;BME280;45705;55.592;37.460;2022-10-16T03:14:10;100432.91;;;1.98;100.00
58295;BME280;45705;55.592;37.460;2022-10-16T03:16:35;100439.50;;;1.95;100.00
58295;BME280;45705;55.592;37.460;2022-10-16T03:19:01;100436.06;;;1.88;100.00
58295;BME280;45705;55.592;37.460;2022-10-16T03:21:27;100444.81;;;1.77;100.00
58295;BME280;45705;55.592;37.460;2022-10-16T03:23:52;100437.81;;;1.76;100.00
58295;BME280;45705;55.592;37.460;2022-10-16T03:26:18;100441.69;;;1.80;100.00
58295;BME280;45705;55.592;37.460;2022-10-16T03:28:44;100444.50;;;1.67;100.00
58295;BME280;45705;55.592;37.460;2022-10-16T03:31:10;100453.75;;;1.71;100.00
58295;BME280;45705;55.592;37.460;2022-10-16T03:33:35;100446.78;;;1.63;100.00
58295;BME280;45705;55.592;37.460;2022-10-16T03:36:01;100448.31;;;1.77;100.00
58295;BME280;45705;55.592;37.460;2022-10-16T03:38:27;100453.47;;;1.79;100.00
58295;BME280;45705;55.592;37.460;2022-10-16T03:40:52;100456.63;;;1.69;100.00
58295;BME280;45705;55.592;37.460;2022-10-16T03:43:18;100456.78;;;1.74;100.00
58295;BME280;45705;55.592;37.460;2022-10-16T03:45:44;100454.59;;;1.65;100.00
58295;BME280;45705;55.592;37.460;2022-10-16T03:48:10;100451.31;;;1.63;100.00
58295;BME280;45705;55.592;37.460;2022-10-16T03:50:36;100445.53;;;1.66;100.00
58295;BME280;45705;55.592;37.460;2022-10-16T03:53:02;100451.78;;;1.53;100.00
58295;BME280;45705;55.592;37.460;2022-10-16T03:55:28;100452.63;;;1.53;100.00
58295;BME280;45705;55.592;37.460;2022-10-16T03:57:54;100453.84;;;1.57;100.00
58295;BME280;45705;55.592;37.460;2022-10-16T04:00:20;100455.31;;;1.53;100.00
58295;BME280;45705;55.592;37.460;2022-10-16T04:02:45;100456.41;;;1.46;100.00
58295;BME280;45705;55.592;37.460;2022-10-16T04:05:11;100457.19;;;1.46;100.00
58295;BME280;45705;55.592;37.460;2022-10-16T04:07:37;100450.78;;;1.47;100.00
58295;BME280;45705;55.592;37.460;2022-10-16T04:10:03;100453.06;;;1.50;100.00
58295;BME280;45705;55.592;37.460;2022-10-16T04:12:29;100461.69;;;1.52;100.00
58295;BME280;45705;55.592;37.460;2022-10-16T04:15:13;100454.66;;;1.58;100.00
58295;BME280;45705;55.592;37.460;2022-10-16T04:17:39;100451.75;;;1.60;100.00
58295;BME280;45705;55.592;37.460;2022-10-16T04:20:06;100462.22;;;1.68;100.00
58295;BME280;45705;55.592;37.460;2022-10-16T04:22:32;100459.88;;;1.78;100.00
58295;BME280;45705;55.592;37.460;2022-10-16T04:24:57;100451.81;;;1.78;100.00
58295;BME280;45705;55.592;37.460;2022-10-16T04:27:23;100458.53;;;1.94;100.00
58295;BME280;45705;55.592;37.460;2022-10-16T04:29:49;100454.28;;;2.05;100.00
58295;BME280;45705;55.592;37.460;2022-10-16T04:32:15;100461.25;;;2.12;100.00
58295;BME280;45705;55.592;37.460;2022-10-16T04:34:41;100460.91;;;2.46;100.00
58295;BME280;45705;55.592;37.460;2022-10-16T04:37:07;100467.94;;;2.65;100.00
58295;BME280;45705;55.592;37.460;2022-10-16T04:39:32;100465.84;;;2.49;100.00
58295;BME280;45705;55.592;37.460;2022-10-16T04:41:58;100471.38;;;2.72;100.00
58295;BME280;45705;55.592;37.460;2022-10-16T04:44:24;100466.16;;;2.78;100.00
58295;BME280;45705;55.592;37.460;2022-10-16T04:46:51;100471.22;;;2.86;100.00
58295;BME280;45705;55.592;37.460;2022-10-16T04:49:16;100463.13;;;3.04;98.58
58295;BME280;45705;55.592;37.460;2022-10-16T04:51:42;100460.88;;;3.20;97.45
58295;BME280;45705;55.592;37.460;2022-10-16T04:54:09;100475.63;;;3.47;95.44
58295;BME280;45705;55.592;37.460;2022-10-16T04:56:35;100473.63;;;3.54;93.62
58295;BME280;45705;55.592;37.460;2022-10-16T04:59:09;100473.53;;;3.31;94.72
58295;BME280;45705;55.592;37.460;2022-10-16T05:01:35;100472.06;;;3.77;92.34
58295;BME280;45705;55.592;37.460;2022-10-16T05:04:01;100475.41;;;3.61;91.93
58295;BME280;45705;55.592;37.460;2022-10-16T05:06:26;100473.44;;;3.68;91.57
58295;BME280;45705;55.592;37.460;2022-10-16T05:08:52;100465.38;;;3.80;90.99
58295;BME280;45705;55.592;37.460;2022-10-16T05:11:18;100473.84;;;3.95;90.24
58295;BME280;45705;55.592;37.460;2022-10-16T05:13:44;100474.56;;;4.26;87.72
58295;BME280;45705;55.592;37.460;2022-10-16T05:16:09;100475.63;;;4.13;87.96
58295;BME280;45705;55.592;37.460;2022-10-16T05:18:35;100479.50;;;4.29;87.52
58295;BME280;45705;55.592;37.460;2022-10-16T05:21:01;100480.31;;;4.29;86.63
58295;BME280;45705;55.592;37.460;2022-10-16T05:23:26;100475.38;;;4.26;86.06
58295;BME280;45705;55.592;37.460;2022-10-16T05:25:56;100485.25;;;4.32;85.09
58295;BME280;45705;55.592;37.460;2022-10-16T05:28:24;100483.09;;;4.70;84.15
58295;BME280;45705;55.592;37.460;2022-10-16T05:30:50;100481.31;;;4.87;82.78
58295;BME280;45705;55.592;37.460;2022-10-16T05:33:16;100478.59;;;4.99;81.41
58295;BME280;45705;55.592;37.460;2022-10-16T05:35:42;100480.50;;;4.87;82.02
58295;BME280;45705;55.592;37.460;2022-10-16T05:38:09;100481.44;;;4.81;82.54
58295;BME280;45705;55.592;37.460;2022-10-16T05:40:35;100486.13;;;5.26;80.21
58295;BME280;45705;55.592;37.460;2022-10-16T05:43:00;100482.09;;;5.40;78.24
58295;BME280;45705;55.592;37.460;2022-10-16T05:45:26;100476.91;;;5.39;78.24
58295;BME280;45705;55.592;37.460;2022-10-16T05:47:52;100486.31;;;5.65;77.69
58295;BME280;45705;55.592;37.460;2022-10-16T05:50:17;100470.53;;;5.57;77.20
58295;BME280;45705;55.592;37.460;2022-10-16T05:52:43;100482.16;;;5.74;76.52
58295;BME280;45705;55.592;37.460;2022-10-16T05:55:09;100486.94;;;6.01;75.02
58295;BME280;45705;55.592;37.460;2022-10-16T05:57:35;100489.31;;;6.14;75.18
58295;BME280;45705;55.592;37.460;2022-10-16T06:00:00;100492.56;;;6.89;69.67
58295;BME280;45705;55.592;37.460;2022-10-16T06:02:26;100497.50;;;7.41;67.42
58295;BME280;45705;55.592;37.460;2022-10-16T06:04:52;100495.13;;;7.23;67.24
58295;BME280;45705;55.592;37.460;2022-10-16T06:07:22;100496.63;;;6.69;69.54
58295;BME280;45705;55.592;37.460;2022-10-16T06:09:52;100499.59;;;6.51;71.33
58295;BME280;45705;55.592;37.460;2022-10-16T06:12:18;100501.00;;;7.15;68.32
58295;BME280;45705;55.592;37.460;2022-10-16T06:14:45;100498.81;;;7.61;66.64
58295;BME280;45705;55.592;37.460;2022-10-16T06:17:13;100493.94;;;7.36;67.33
58295;BME280;45705;55.592;37.460;2022-10-16T06:19:39;100495.59;;;7.37;67.05
58295;BME280;45705;55.592;37.460;2022-10-16T06:22:05;100497.00;;;7.99;65.17
58295;BME280;45705;55.592;37.460;2022-10-16T06:24:31;100490.41;;;8.59;61.96
58295;BME280;45705;55.592;37.460;2022-10-16T06:26:57;100489.97;;;8.73;60.82
58295;BME280;45705;55.592;37.460;2022-10-16T06:29:23;100498.88;;;8.31;62.86
58295;BME280;45705;55.592;37.460;2022-10-16T06:31:48;100495.66;;;8.39;62.49
58295;BME280;45705;55.592;37.460;2022-10-16T06:34:33;100503.94;;;9.02;60.64
58295;BME280;45705;55.592;37.460;2022-10-16T06:36:59;100502.50;;;8.09;63.28
58295;BME280;45705;55.592;37.460;2022-10-16T06:39:25;100507.00;;;8.68;61.50
58295;BME280;45705;55.592;37.460;2022-10-16T06:41:50;100512.91;;;8.27;62.87
58295;BME280;45705;55.592;37.460;2022-10-16T06:44:16;100505.03;;;8.58;61.79
58295;BME280;45705;55.592;37.460;2022-10-16T06:46:42;100504.53;;;8.24;63.38
58295;BME280;45705;55.592;37.460;2022-10-16T06:49:07;100505.94;;;8.37;62.29
58295;BME280;45705;55.592;37.460;2022-10-16T06:51:33;100512.75;;;8.77;61.48
58295;BME280;45705;55.592;37.460;2022-10-16T06:54:01;100505.81;;;8.96;60.69
58295;BME280;45705;55.592;37.460;2022-10-16T06:56:28;100509.22;;;8.76;61.19
58295;BME280;45705;55.592;37.460;2022-10-16T06:58:56;100513.94;;;8.16;63.99
58295;BME280;45705;55.592;37.460;2022-10-16T07:01:24;100515.47;;;8.07;65.13
58295;BME280;45705;55.592;37.460;2022-10-16T07:03:50;100518.13;;;8.02;65.81
58295;BME280;45705;55.592;37.460;2022-10-16T07:06:18;100519.50;;;8.37;65.09
58295;BME280;45705;55.592;37.460;2022-10-16T07:08:46;100512.03;;;8.49;64.41
58295;BME280;45705;55.592;37.460;2022-10-16T07:11:14;100510.25;;;8.00;66.33
58295;BME280;45705;55.592;37.460;2022-10-16T07:13:41;100509.72;;;8.31;65.25
58295;BME280;45705;55.592;37.460;2022-10-16T07:16:10;100514.81;;;7.95;67.51
58295;BME280;45705;55.592;37.460;2022-10-16T07:18:36;100510.78;;;7.97;67.37
58295;BME280;45705;55.592;37.460;2022-10-16T07:21:13;100518.78;;;8.14;67.35
58295;BME280;45705;55.592;37.460;2022-10-16T07:23:39;100522.44;;;7.71;69.23
58295;BME280;45705;55.592;37.460;2022-10-16T07:26:05;100522.75;;;7.25;71.11
58295;BME280;45705;55.592;37.460;2022-10-16T07:28:32;100522.06;;;7.13;71.36
58295;BME280;45705;55.592;37.460;2022-10-16T07:31:07;100518.69;;;7.00;73.04
58295;BME280;45705;55.592;37.460;2022-10-16T07:33:35;100523.84;;;7.24;71.84
58295;BME280;45705;55.592;37.460;2022-10-16T07:36:01;100516.53;;;7.46;71.75
58295;BME280;45705;55.592;37.460;2022-10-16T07:38:27;100524.22;;;7.60;70.76
58295;BME280;45705;55.592;37.460;2022-10-16T07:41:04;100522.59;;;7.59;70.67
58295;BME280;45705;55.592;37.460;2022-10-16T07:43:31;100530.16;;;7.35;70.91
58295;BME280;45705;55.592;37.460;2022-10-16T07:45:57;100521.50;;;7.60;69.66
58295;BME280;45705;55.592;37.460;2022-10-16T07:48:23;100516.47;;;7.68;70.20
58295;BME280;45705;55.592;37.460;2022-10-16T07:50:49;100526.72;;;7.39;71.09
58295;BME280;45705;55.592;37.460;2022-10-16T07:53:16;100530.72;;;7.59;70.84
58295;BME280;45705;55.592;37.460;2022-10-16T07:55:41;100523.75;;;7.41;71.21
58295;BME280;45705;55.592;37.460;2022-10-16T07:58:07;100525.50;;;7.52;71.18
58295;BME280;45705;55.592;37.460;2022-10-16T08:00:33;100522.22;;;7.50;71.34
58295;BME280;45705;55.592;37.460;2022-10-16T08:02:58;100517.25;;;7.64;70.90
58295;BME280;45705;55.592;37.460;2022-10-16T08:05:27;100522.22;;;7.77;69.93
58295;BME280;45705;55.592;37.460;2022-10-16T08:07:53;100525.31;;;7.59;70.66
58295;BME280;45705;55.592;37.460;2022-10-16T08:10:20;100522.53;;;7.81;69.58
58295;BME280;45705;55.592;37.460;2022-10-16T08:12:46;100524.09;;;7.99;68.78
58295;BME280;45705;55.592;37.460;2022-10-16T08:15:11;100516.53;;;8.01;67.97
58295;BME280;45705;55.592;37.460;2022-10-16T08:17:37;100519.50;;;8.37;66.60
58295;BME280;45705;55.592;37.460;2022-10-16T08:20:03;100515.69;;;8.33;67.13
58295;BME280;45705;55.592;37.460;2022-10-16T08:22:29;100513.75;;;8.28;67.51
58295;BME280;45705;55.592;37.460;2022-10-16T08:24:55;100511.50;;;8.52;65.93
58295;BME280;45705;55.592;37.460;2022-10-16T08:27:20;100513.22;;;8.63;65.33
58295;BME280;45705;55.592;37.460;2022-10-16T08:29:48;100515.84;;;9.01;63.16
58295;BME280;45705;55.592;37.460;2022-10-16T08:32:14;100512.53;;;8.89;62.99
58295;BME280;45705;55.592;37.460;2022-10-16T08:34:40;100505.81;;;8.96;63.13
58295;BME280;45705;55.592;37.460;2022-10-16T08:37:06;100510.31;;;8.75;63.58
58295;BME280;45705;55.592;37.460;2022-10-16T08:39:33;100514.53;;;9.09;63.13
58295;BME280;45705;55.592;37.460;2022-10-16T08:50:27;100505.97;;;9.42;60.17
58295;BME280;45705;55.592;37.460;2022-10-16T08:52:55;100505.47;;;9.56;59.46
58295;BME280;45705;55.592;37.460;2022-10-16T08:58:29;100499.28;;;9.81;58.15
58295;BME280;45705;55.592;37.460;2022-10-16T09:00:58;100501.69;;;9.62;57.53
58295;BME280;45705;55.592;37.460;2022-10-16T09:03:51;100506.03;;;9.68;56.73
58295;BME280;45705;55.592;37.460;2022-10-16T09:07:01;100507.69;;;9.79;56.41
58295;BME280;45705;55.592;37.460;2022-10-16T09:15:07;100508.25;;;9.92;55.14
58295;BME280;45705;55.592;37.460;2022-10-16T09:20:26;100491.41;;;10.41;53.33
58295;BME280;45705;55.592;37.460;2022-10-16T09:23:29;100494.66;;;10.53;52.92
58295;BME280;45705;55.592;37.460;2022-10-16T09:25:57;100492.22;;;10.41;52.84
58295;BME280;45705;55.592;37.460;2022-10-16T09:28:24;100488.69;;;10.46;52.45
58295;BME280;45705;55.592;37.460;2022-10-16T09:30:50;100494.09;;;10.67;51.57
58295;BME280;45705;55.592;37.460;2022-10-16T09:33:19;100494.06;;;10.72;51.37
58295;BME280;45705;55.592;37.460;2022-10-16T09:35:49;100489.69;;;10.76;51.34
58295;BME280;45705;55.592;37.460;2022-10-16T09:38:30;100484.88;;;10.47;52.01
58295;BME280;45705;55.592;37.460;2022-10-16T09:40:58;100490.81;;;10.75;51.55
58295;BME280;45705;55.592;37.460;2022-10-16T09:43:31;100489.50;;;10.57;52.04
58295;BME280;45705;55.592;37.460;2022-10-16T09:46:07;100483.25;;;10.46;52.34
58295;BME280;45705;55.592;37.460;2022-10-16T09:48:42;100475.88;;;10.52;51.94
58295;BME280;45705;55.592;37.460;2022-10-16T09:51:21;100476.69;;;10.62;51.39
58295;BME280;45705;55.592;37.460;2022-10-16T09:53:49;100472.91;;;10.53;51.29
58295;BME280;45705;55.592;37.460;2022-10-16T09:58:58;100468.78;;;10.71;50.58
58295;BME280;45705;55.592;37.460;2022-10-16T10:01:30;100478.25;;;10.84;50.22
58295;BME280;45705;55.592;37.460;2022-10-16T10:03:57;100477.91;;;11.01;50.04
58295;BME280;45705;55.592;37.460;2022-10-16T10:06:31;100482.75;;;11.14;49.53
58295;BME280;45705;55.592;37.460;2022-10-16T10:11:51;100487.44;;;11.03;49.65
58295;BME280;45705;55.592;37.460;2022-10-16T10:14:24;100469.19;;;11.09;49.50
58295;BME280;45705;55.592;37.460;2022-10-16T10:19:27;100468.41;;;10.93;50.36
58295;BME280;45705;55.592;37.460;2022-10-16T10:21:53;100473.78;;;11.09;50.62
58295;BME280;45705;55.592;37.460;2022-10-16T10:24:19;100469.94;;;11.20;50.24
58295;BME280;45705;55.592;37.460;2022-10-16T10:26:56;100470.97;;;11.29;50.46
58295;BME280;45705;55.592;37.460;2022-10-16T10:29:55;100465.97;;;11.52;49.85
58295;BME280;45705;55.592;37.460;2022-10-16T10:32:35;100466.34;;;11.74;48.97
58295;BME280;45705;55.592;37.460;2022-10-16T10:35:21;100477.38;;;11.54;49.43
58295;BME280;45705;55.592;37.460;2022-10-16T10:41:00;100466.78;;;11.52;48.91
58295;BME280;45705;55.592;37.460;2022-10-16T10:46:11;100460.56;;;11.41;48.70
58295;BME280;45705;55.592;37.460;2022-10-16T10:49:13;100456.03;;;11.66;48.58
58295;BME280;45705;55.592;37.460;2022-10-16T10:51:49;100442.97;;;11.68;48.72
58295;BME280;45705;55.592;37.460;2022-10-16T10:54:35;100452.53;;;11.60;49.20
58295;BME280;45705;55.592;37.460;2022-10-16T11:02:41;100446.78;;;11.67;48.75
58295;BME280;45705;55.592;37.460;2022-10-16T11:07:54;100440.91;;;11.50;49.70
58295;BME280;45705;55.592;37.460;2022-10-16T11:10:27;100446.38;;;11.45;50.29
58295;BME280;45705;55.592;37.460;2022-10-16T11:13:15;100441.09;;;11.63;49.66
58295;BME280;45705;55.592;37.460;2022-10-16T11:15:44;100439.91;;;11.35;50.13
58295;BME280;45705;55.592;37.460;2022-10-16T11:21:15;100447.53;;;11.33;49.91
58295;BME280;45705;55.592;37.460;2022-10-16T11:23:48;100432.41;;;11.17;50.44
58295;BME280;45705;55.592;37.460;2022-10-16T11:26:24;100441.59;;;11.26;50.71
58295;BME280;45705;55.592;37.460;2022-10-16T11:28:53;100442.59;;;11.40;50.55
58295;BME280;45705;55.592;37.460;2022-10-16T11:31:27;100430.69;;;11.26;50.77
58295;BME280;45705;55.592;37.460;2022-10-16T11:34:12;100431.00;;;11.19;50.81
58295;BME280;45705;55.592;37.460;2022-10-16T11:39:27;100438.22;;;11.45;49.95
58295;BME280;45705;55.592;37.460;2022-10-16T11:53:14;100438.75;;;11.47;49.85
58295;BME280;45705;55.592;37.460;2022-10-16T11:55:43;100437.75;;;11.32;49.99
58295;BME280;45705;55.592;37.460;2022-10-16T11:58:30;100433.94;;;11.28;50.22
58295;BME280;45705;55.592;37.460;2022-10-16T12:01:41;100432.09;;;11.23;50.52
58295;BME280;45705;55.592;37.460;2022-10-16T12:06:36;100432.59;;;11.26;50.73
58295;BME280;45705;55.592;37.460;2022-10-16T12:09:03;100417.69;;;11.18;50.51
58295;BME280;45705;55.592;37.460;2022-10-16T12:16:37;100429.06;;;11.30;50.42
58295;BME280;45705;55.592;37.460;2022-10-16T12:19:15;100427.56;;;11.48;49.71
58295;BME280;45705;55.592;37.460;2022-10-16T12:21:42;100419.94;;;11.50;49.83
58295;BME280;45705;55.592;37.460;2022-10-16T12:26:52;100411.41;;;11.62;48.81
58295;BME280;45705;55.592;37.460;2022-10-16T12:29:43;100412.47;;;11.66;48.70
58295;BME280;45705;55.592;37.460;2022-10-16T12:34:58;100410.38;;;11.92;48.43
58295;BME280;45705;55.592;37.460;2022-10-16T12:37:32;100412.97;;;11.73;48.81
58295;BME280;45705;55.592;37.460;2022-10-16T12:39:59;100410.75;;;11.75;49.22
58295;BME280;45705;55.592;37.460;2022-10-16T12:44:55;100407.72;;;11.42;49.54
58295;BME280;45705;55.592;37.460;2022-10-16T12:47:48;100403.25;;;11.22;50.10
58295;BME280;45705;55.592;37.460;2022-10-16T12:52:51;100412.28;;;11.52;49.41
58295;BME280;45705;55.592;37.460;2022-10-16T12:55:19;100411.41;;;11.62;49.49
58295;BME280;45705;55.592;37.460;2022-10-16T12:58:23;100411.31;;;11.72;48.92
58295;BME280;45705;55.592;37.460;2022-10-16T13:01:07;100406.72;;;11.28;49.92
58295;BME280;45705;55.592;37.460;2022-10-16T13:04:02;100417.16;;;11.11;50.22
58295;BME280;45705;55.592;37.460;2022-10-16T13:09:25;100415.03;;;11.02;50.94
58295;BME280;45705;55.592;37.460;2022-10-16T13:23:51;100403.69;;;10.85;51.45
58295;BME280;45705;55.592;37.460;2022-10-16T13:29:01;100405.41;;;10.66;52.71
58295;BME280;45705;55.592;37.460;2022-10-16T13:31:28;100416.28;;;10.66;52.98
58295;BME280;45705;55.592;37.460;2022-10-16T13:33:56;100415.75;;;10.58;53.16
58295;BME280;45705;55.592;37.460;2022-10-16T13:36:27;100403.31;;;10.42;53.86
58295;BME280;45705;55.592;37.460;2022-10-16T13:39:13;100414.19;;;10.37;54.23
58295;BME280;45705;55.592;37.460;2022-10-16T13:41:39;100408.75;;;10.42;54.25
58295;BME280;45705;55.592;37.460;2022-10-16T13:44:12;100415.25;;;10.41;54.39
58295;BME280;45705;55.592;37.460;2022-10-16T13:46:39;100416.38;;;10.35;54.78
58295;BME280;45705;55.592;37.460;2022-10-16T13:49:14;100412.00;;;10.29;55.04
58295;BME280;45705;55.592;37.460;2022-10-16T13:51:40;100416.91;;;10.27;55.15
58295;BME280;45705;55.592;37.460;2022-10-16T13:54:09;100416.94;;;10.16;55.53
58295;BME280;45705;55.592;37.460;2022-10-16T13:56:38;100409.31;;;10.13;55.79
58295;BME280;45705;55.592;37.460;2022-10-16T13:59:26;100408.25;;;10.09;56.15
58295;BME280;45705;55.592;37.460;2022-10-16T14:01:55;100410.97;;;9.99;56.47
58295;BME280;45705;55.592;37.460;2022-10-16T14:04:23;100405.00;;;9.92;56.42
58295;BME280;45705;55.592;37.460;2022-10-16T14:06:51;100410.44;;;9.86;56.77
58295;BME280;45705;55.592;37.460;2022-10-16T14:09:28;100415.34;;;9.79;57.20
58295;BME280;45705;55.592;37.460;2022-10-16T14:12:01;100416.16;;;9.70;57.40
58295;BME280;45705;55.592;37.460;2022-10-16T14:14:43;100416.97;;;9.70;57.26
58295;BME280;45705;55.592;37.460;2022-10-16T14:17:16;100419.13;;;9.68;57.72
58295;BME280;45705;55.592;37.460;2022-10-16T14:19:48;100409.88;;;9.49;58.32
58295;BME280;45705;55.592;37.460;2022-10-16T14:22:36;100414.75;;;9.52;58.52
58295;BME280;45705;55.592;37.460;2022-10-16T14:25:24;100420.19;;;9.41;59.14
58295;BME280;45705;55.592;37.460;2022-10-16T14:28:17;100412.56;;;9.28;59.90
58295;BME280;45705;55.592;37.460;2022-10-16T14:31:00;100420.41;;;9.24;60.00
58295;BME280;45705;55.592;37.460;2022-10-16T14:36:14;100417.97;;;9.18;60.60
58295;BME280;45705;55.592;37.460;2022-10-16T14:38:48;100421.53;;;9.23;60.33
58295;BME280;45705;55.592;37.460;2022-10-16T14:41:14;100417.94;;;9.13;60.88
58295;BME280;45705;55.592;37.460;2022-10-16T14:43:42;100426.31;;;9.01;61.40
58295;BME280;45705;55.592;37.460;2022-10-16T14:46:20;100423.88;;;8.94;61.70
58295;BME280;45705;55.592;37.460;2022-10-16T14:48:49;100424.91;;;8.83;62.54
58295;BME280;45705;55.592;37.460;2022-10-16T14:51:18;100425.16;;;8.76;63.03